createdAt,value
2023-04-07T00:00:13.196Z,10.03
2023-04-07T00:01:15.407Z,10.04
2023-04-07T00:02:18.284Z,10.04
2023-04-07T00:03:20.825Z,10.04
2023-04-07T00:04:23.442Z,10.03
2023-04-07T00:05:25.743Z,10.02
2023-04-07T00:06:28.146Z,10.01
2023-04-07T00:07:30.697Z,9.99
2023-04-07T00:08:33.073Z,9.99
2023-04-07T00:09:35.356Z,9.97
2023-04-07T00:10:37.841Z,9.96
2023-04-07T00:11:40.142Z,9.95
2023-04-07T00:12:42.207Z,9.93
2023-04-07T00:13:45.278Z,9.93
2023-04-07T00:14:47.333Z,9.90
2023-04-07T00:15:49.614Z,9.90
2023-04-07T00:16:52.072Z,9.89
2023-04-07T00:17:54.224Z,9.87
2023-04-07T00:18:56.407Z,9.86
2023-04-07T00:19:59.100Z,9.86
2023-04-07T00:21:01.459Z,9.85
2023-04-07T00:22:04.118Z,9.85
2023-04-07T00:23:06.295Z,9.85
2023-04-07T00:24:08.356Z,9.82
2023-04-07T00:25:10.706Z,9.82
2023-04-07T00:26:13.367Z,9.83
2023-04-07T00:27:16.294Z,9.82
2023-04-07T00:28:19.516Z,9.82
2023-04-07T00:29:22.531Z,9.82
2023-04-07T00:30:24.989Z,9.82
2023-04-07T00:31:27.293Z,9.82
2023-04-07T00:32:30.089Z,9.82
2023-04-07T00:33:32.585Z,9.82
2023-04-07T00:34:34.860Z,9.84
2023-04-07T00:35:37.206Z,9.86
2023-04-07T00:36:41.182Z,9.87
2023-04-07T00:37:43.551Z,9.87
2023-04-07T00:38:45.769Z,9.86
2023-04-07T00:39:47.824Z,9.87
2023-04-07T00:40:58.780Z,9.87
2023-04-07T00:42:03.260Z,9.87
2023-04-07T00:43:05.390Z,9.86
2023-04-07T00:44:07.579Z,9.85
2023-04-07T00:45:11.061Z,9.84
2023-04-07T00:46:13.846Z,9.82
2023-04-07T00:47:16.020Z,9.80
2023-04-07T00:48:18.601Z,9.80
2023-04-07T00:49:21.369Z,9.80
2023-04-07T00:50:24.304Z,9.79
2023-04-07T00:51:26.576Z,9.78
2023-04-07T00:52:29.582Z,9.75
2023-04-07T00:53:32.249Z,9.75
2023-04-07T00:54:34.985Z,9.74
2023-04-07T00:55:37.278Z,9.75
2023-04-07T00:56:41.344Z,9.76
2023-04-07T00:57:44.807Z,9.75
2023-04-07T00:58:47.547Z,9.73
2023-04-07T01:01:06.286Z,9.82
2023-04-07T01:02:18.444Z,9.67
2023-04-07T01:03:27.336Z,9.68
2023-04-07T01:04:43.768Z,9.67
2023-04-07T01:05:52.673Z,9.69
2023-04-07T01:06:57.132Z,9.68
2023-04-07T01:08:11.841Z,9.69
2023-04-07T01:09:26.827Z,9.68
2023-04-07T01:12:12.191Z,9.75
2023-04-07T01:13:22.774Z,9.60
2023-04-07T01:14:28.484Z,9.62
2023-04-07T01:15:33.883Z,9.63
2023-04-07T01:16:45.842Z,9.61
2023-04-07T01:17:52.561Z,9.62
2023-04-07T01:19:10.832Z,9.62
2023-04-07T01:20:16.661Z,9.63
2023-04-07T01:21:22.513Z,9.63
2023-04-07T01:24:02.313Z,9.73
2023-04-07T01:25:40.269Z,9.58
2023-04-07T01:26:43.197Z,9.61
2023-04-07T01:28:03.866Z,9.65
2023-04-07T01:29:32.486Z,9.64
2023-04-07T01:37:10.276Z,9.54
2023-04-07T01:40:20.535Z,9.45
2023-04-07T01:42:27.257Z,9.43
2023-04-07T01:43:30.594Z,9.41
2023-04-07T01:44:33.716Z,9.38
2023-04-07T01:45:37.145Z,9.37
2023-04-07T01:46:41.274Z,9.34
2023-04-07T01:47:44.974Z,9.33
2023-04-07T01:48:48.348Z,9.34
2023-04-07T01:49:51.280Z,9.35
2023-04-07T01:50:54.435Z,9.37
2023-04-07T01:51:57.585Z,9.36
2023-04-07T01:53:00.504Z,9.35
2023-04-07T01:54:04.060Z,9.33
2023-04-07T01:55:07.648Z,9.33
2023-04-07T01:56:12.144Z,9.32
2023-04-07T01:57:15.172Z,9.31
2023-04-07T01:58:17.792Z,9.32
2023-04-07T01:59:20.318Z,9.31
2023-04-07T02:00:24.243Z,9.31
2023-04-07T02:01:28.631Z,9.30
2023-04-07T02:02:34.514Z,9.31
2023-04-07T02:03:46.656Z,9.32
2023-04-07T02:04:54.421Z,9.31
2023-04-07T02:05:59.917Z,9.32
2023-04-07T02:07:08.969Z,9.35
2023-04-07T02:08:15.669Z,9.37
2023-04-07T02:09:20.109Z,9.39
2023-04-07T02:10:25.286Z,9.39
2023-04-07T02:11:29.194Z,9.41
2023-04-07T02:12:35.095Z,9.45
2023-04-07T02:13:39.371Z,9.44
2023-04-07T02:14:45.029Z,9.43
2023-04-07T02:15:49.925Z,9.43
2023-04-07T02:16:54.701Z,9.41
2023-04-07T02:17:58.460Z,9.41
2023-04-07T02:19:01.764Z,9.41
2023-04-07T02:20:07.695Z,9.40
2023-04-07T02:21:13.495Z,9.41
2023-04-07T02:22:16.002Z,9.39
2023-04-07T02:23:18.471Z,9.38
2023-04-07T02:24:21.186Z,9.39
2023-04-07T02:25:32.215Z,9.39
2023-04-07T02:26:35.784Z,9.38
2023-04-07T02:27:38.184Z,9.40
2023-04-07T02:28:40.425Z,9.41
2023-04-07T02:29:42.576Z,9.42
2023-04-07T02:30:45.451Z,9.44
2023-04-07T02:31:47.684Z,9.44
2023-04-07T02:32:49.979Z,9.45
2023-04-07T02:33:52.505Z,9.47
2023-04-07T02:34:55.494Z,9.47
2023-04-07T02:35:57.590Z,9.46
2023-04-07T02:37:00.093Z,9.47
2023-04-07T02:38:02.916Z,9.48
2023-04-07T02:39:05.091Z,9.50
2023-04-07T02:40:10.154Z,9.50
2023-04-07T02:41:12.529Z,9.52
2023-04-07T02:42:14.701Z,9.54
2023-04-07T02:43:17.080Z,9.56
2023-04-07T02:44:19.043Z,9.57
2023-04-07T02:45:21.307Z,9.56
2023-04-07T02:46:23.933Z,9.56
2023-04-07T02:47:27.167Z,9.59
2023-04-07T02:48:30.712Z,9.59
2023-04-07T02:49:32.847Z,9.59
2023-04-07T02:50:35.091Z,9.61
2023-04-07T02:51:37.265Z,9.61
2023-04-07T02:52:40.535Z,9.62
2023-04-07T02:53:44.951Z,9.64
2023-04-07T02:54:48.787Z,9.65
2023-04-07T02:55:53.296Z,9.67
2023-04-07T02:56:55.710Z,9.65
2023-04-07T02:57:59.445Z,9.67
2023-04-07T02:59:03.425Z,9.70
2023-04-07T03:00:09.420Z,9.69
2023-04-07T03:01:22.643Z,9.69
2023-04-07T03:02:25.194Z,9.69
2023-04-07T03:03:28.378Z,9.68
2023-04-07T03:04:44.188Z,9.69
2023-04-07T03:05:47.326Z,9.71
2023-04-07T03:06:49.839Z,9.69
2023-04-07T03:07:52.145Z,9.68
2023-04-07T03:08:54.343Z,9.69
2023-04-07T03:09:57.361Z,9.69
2023-04-07T03:11:00.320Z,9.69
2023-04-07T03:12:04.240Z,9.70
2023-04-07T03:13:08.384Z,9.68
2023-04-07T03:14:10.603Z,9.68
2023-04-07T03:15:18.876Z,9.68
2023-04-07T03:16:23.676Z,9.69
2023-04-07T03:17:33.622Z,9.68
2023-04-07T03:18:36.087Z,9.66
2023-04-07T03:19:39.323Z,9.66
2023-04-07T03:20:41.884Z,9.65
2023-04-07T03:21:45.432Z,9.63
2023-04-07T03:22:47.520Z,9.61
2023-04-07T03:23:54.913Z,9.59
2023-04-07T03:24:57.498Z,9.57
2023-04-07T03:26:00.083Z,9.56
2023-04-07T03:27:04.098Z,9.56
2023-04-07T03:28:10.947Z,9.54
2023-04-07T03:29:13.533Z,9.57
2023-04-07T03:30:17.369Z,9.57
2023-04-07T03:31:20.350Z,9.58
2023-04-07T03:32:24.526Z,9.58
2023-04-07T03:33:27.706Z,9.56
2023-04-07T03:34:31.027Z,9.59
2023-04-07T03:35:34.122Z,9.59
2023-04-07T03:36:36.866Z,9.59
2023-04-07T03:37:40.224Z,9.60
2023-04-07T03:38:46.713Z,9.59
2023-04-07T03:39:50.933Z,9.59
2023-04-07T03:40:58.041Z,9.60
2023-04-07T03:42:00.221Z,9.60
2023-04-07T03:43:04.341Z,9.60
2023-04-07T03:44:06.627Z,9.59
2023-04-07T03:45:11.048Z,9.60
2023-04-07T03:46:15.523Z,9.59
2023-04-07T03:47:18.410Z,9.59
2023-04-07T03:48:22.436Z,9.59
2023-04-07T03:49:27.128Z,9.60
2023-04-07T03:50:29.737Z,9.60
2023-04-07T03:51:34.938Z,9.60
2023-04-07T03:52:38.616Z,9.60
2023-04-07T03:53:42.620Z,9.61
2023-04-07T03:54:55.864Z,9.62
2023-04-07T03:56:00.057Z,9.61
2023-04-07T03:57:16.850Z,9.62
2023-04-07T03:58:21.354Z,9.64
2023-04-07T03:59:24.389Z,9.63
2023-04-07T04:00:29.981Z,9.63
2023-04-07T04:01:40.101Z,9.62
2023-04-07T04:02:45.326Z,9.63
2023-04-07T04:03:50.006Z,9.63
2023-04-07T04:04:54.735Z,9.62
2023-04-07T04:06:02.250Z,9.63
2023-04-07T04:07:06.321Z,9.63
2023-04-07T04:08:10.418Z,9.64
2023-04-07T04:09:13.635Z,9.65
2023-04-07T04:10:19.308Z,9.65
2023-04-07T04:11:22.794Z,9.66
2023-04-07T04:12:26.809Z,9.67
2023-04-07T04:13:30.959Z,9.67
2023-04-07T04:14:34.687Z,9.68
2023-04-07T04:15:37.174Z,9.69
2023-04-07T04:16:44.762Z,9.69
2023-04-07T04:17:49.048Z,9.71
2023-04-07T04:18:51.656Z,9.72
2023-04-07T04:19:53.923Z,9.73
2023-04-07T04:20:58.267Z,9.73
2023-04-07T04:22:01.623Z,9.72
2023-04-07T04:23:05.737Z,9.72
2023-04-07T04:24:08.769Z,9.74
2023-04-07T04:25:11.769Z,9.75
2023-04-07T04:26:15.588Z,9.74
2023-04-07T04:27:18.901Z,9.75
2023-04-07T04:28:22.904Z,9.77
2023-04-07T04:29:26.007Z,9.79
2023-04-07T04:30:30.034Z,9.80
2023-04-07T04:31:34.192Z,9.80
2023-04-07T04:32:36.973Z,9.80
2023-04-07T04:33:40.190Z,9.80
2023-04-07T04:34:43.104Z,9.80
2023-04-07T04:35:46.374Z,9.81
2023-04-07T04:36:50.838Z,9.82
2023-04-07T04:37:54.569Z,9.82
2023-04-07T04:38:56.804Z,9.81
2023-04-07T04:39:59.377Z,9.82
2023-04-07T04:41:01.683Z,9.81
2023-04-07T04:42:05.806Z,9.83
2023-04-07T04:43:10.503Z,9.82
2023-04-07T04:44:15.021Z,9.83
2023-04-07T04:45:17.556Z,9.84
2023-04-07T04:46:22.347Z,9.85
2023-04-07T04:47:25.035Z,9.85
2023-04-07T04:48:27.665Z,9.86
2023-04-07T04:49:29.916Z,9.88
2023-04-07T04:50:37.555Z,9.89
2023-04-07T04:51:41.875Z,9.89
2023-04-07T04:52:45.869Z,9.89
2023-04-07T04:53:51.454Z,9.90
2023-04-07T04:54:54.486Z,9.91
2023-04-07T04:55:56.765Z,9.96
2023-04-07T04:57:01.197Z,9.98
2023-04-07T04:58:04.324Z,10.00
2023-04-07T04:59:08.425Z,10.03
2023-04-07T05:00:14.649Z,10.05
2023-04-07T05:01:17.699Z,10.09
2023-04-07T05:02:24.870Z,10.10
2023-04-07T05:03:28.691Z,10.15
2023-04-07T05:04:33.054Z,10.19
2023-04-07T05:05:37.431Z,10.21
2023-04-07T05:06:40.675Z,10.23
2023-04-07T05:07:45.816Z,10.26
2023-04-07T05:08:48.771Z,10.29
2023-04-07T05:09:53.136Z,10.32
2023-04-07T05:10:57.606Z,10.34
2023-04-07T05:12:00.894Z,10.36
2023-04-07T05:13:04.129Z,10.40
2023-04-07T05:14:06.758Z,10.46
2023-04-07T05:15:10.220Z,10.52
2023-04-07T05:16:14.058Z,10.58
2023-04-07T05:17:16.950Z,10.65
2023-04-07T05:18:19.534Z,10.73
2023-04-07T05:19:23.557Z,10.81
2023-04-07T05:20:28.016Z,10.89
2023-04-07T05:21:30.626Z,10.97
2023-04-07T05:22:34.535Z,11.01
2023-04-07T05:23:37.096Z,11.04
2023-04-07T05:24:40.510Z,11.12
2023-04-07T05:26:02.564Z,11.16
2023-04-07T05:27:05.789Z,11.19
2023-04-07T05:28:08.096Z,11.21
2023-04-07T05:29:10.878Z,11.23
2023-04-07T05:30:14.942Z,11.30
2023-04-07T05:31:17.472Z,11.34
2023-04-07T05:32:21.751Z,11.33
2023-04-07T05:33:25.143Z,11.30
2023-04-07T05:34:28.488Z,11.25
2023-04-07T05:35:30.989Z,11.23
2023-04-07T05:36:36.780Z,11.21
2023-04-07T05:37:39.117Z,11.19
2023-04-07T05:38:41.972Z,11.17
2023-04-07T05:39:46.112Z,11.13
2023-04-07T05:40:49.649Z,11.15
2023-04-07T05:42:03.100Z,11.15
2023-04-07T05:43:05.855Z,11.13
2023-04-07T05:44:10.009Z,11.11
2023-04-07T05:45:14.521Z,11.08
2023-04-07T05:46:20.387Z,11.05
2023-04-07T05:47:24.775Z,11.04
2023-04-07T05:48:27.051Z,11.04
2023-04-07T05:49:30.999Z,11.02
2023-04-07T05:50:35.803Z,11.03
2023-04-07T05:51:39.864Z,11.01
2023-04-07T05:52:44.007Z,11.00
2023-04-07T05:53:47.945Z,10.97
2023-04-07T05:54:51.958Z,10.95
2023-04-07T05:55:55.397Z,10.93
2023-04-07T05:56:59.916Z,10.92
2023-04-07T05:58:05.081Z,10.92
2023-04-07T05:59:10.106Z,10.91
2023-04-07T06:00:16.071Z,10.92
2023-04-07T06:01:19.944Z,10.92
2023-04-07T06:02:23.217Z,10.93
2023-04-07T06:03:27.518Z,10.93
2023-04-07T06:04:31.776Z,10.92
2023-04-07T06:05:35.453Z,10.90
2023-04-07T06:06:38.406Z,10.91
2023-04-07T06:07:40.744Z,10.90
2023-04-07T06:08:43.693Z,10.90
2023-04-07T06:09:48.233Z,10.91
2023-04-07T06:10:50.749Z,10.92
2023-04-07T06:11:55.617Z,10.91
2023-04-07T06:13:00.394Z,10.92
2023-04-07T06:14:02.971Z,10.92
2023-04-07T06:15:06.661Z,10.91
2023-04-07T06:16:09.958Z,10.92
2023-04-07T06:17:13.048Z,10.90
2023-04-07T06:18:15.404Z,10.90
2023-04-07T06:19:17.700Z,10.91
2023-04-07T06:20:21.281Z,10.93
2023-04-07T06:21:23.672Z,10.93
2023-04-07T06:22:26.952Z,10.92
2023-04-07T06:23:29.316Z,10.92
2023-04-07T06:24:31.508Z,10.92
2023-04-07T06:25:33.819Z,10.94
2023-04-07T06:26:37.275Z,10.94
2023-04-07T06:27:40.597Z,10.95
2023-04-07T06:28:43.259Z,10.97
2023-04-07T06:29:46.300Z,10.99
2023-04-07T06:30:49.800Z,10.99
2023-04-07T06:31:52.716Z,11.01
2023-04-07T06:32:55.108Z,11.02
2023-04-07T06:33:58.569Z,11.04
2023-04-07T06:35:00.891Z,11.05
2023-04-07T06:36:04.219Z,11.05
2023-04-07T06:37:07.388Z,11.08
2023-04-07T06:38:09.617Z,11.08
2023-04-07T06:39:12.102Z,11.09
2023-04-07T06:40:16.229Z,11.08
2023-04-07T06:41:18.588Z,11.11
2023-04-07T06:42:20.544Z,11.12
2023-04-07T06:43:27.968Z,11.14
2023-04-07T06:44:32.123Z,11.16
2023-04-07T06:45:35.086Z,11.19
2023-04-07T06:46:38.735Z,11.20
2023-04-07T06:47:41.013Z,11.20
2023-04-07T06:48:43.351Z,11.20
2023-04-07T06:49:45.412Z,11.20
2023-04-07T06:50:50.629Z,11.20
2023-04-07T06:51:52.984Z,11.20
2023-04-07T06:52:55.062Z,11.23
2023-04-07T06:53:57.199Z,11.23
2023-04-07T06:54:59.844Z,11.28
2023-04-07T06:57:14.369Z,11.44
2023-04-07T06:58:16.600Z,11.32
2023-04-07T06:59:18.681Z,11.34
2023-04-07T07:00:21.142Z,11.38
2023-04-07T07:01:23.263Z,11.42
2023-04-07T07:02:25.474Z,11.44
2023-04-07T07:03:29.689Z,11.48
2023-04-07T07:04:33.488Z,11.50
2023-04-07T07:05:36.760Z,11.52
2023-04-07T07:06:39.299Z,11.53
2023-04-07T07:07:42.000Z,11.55
2023-04-07T07:08:45.226Z,11.57
2023-04-07T07:09:48.002Z,11.59
2023-04-07T07:10:50.972Z,11.61
2023-04-07T07:11:53.297Z,11.64
2023-04-07T07:12:56.699Z,11.66
2023-04-07T07:13:58.914Z,11.69
2023-04-07T07:15:01.152Z,11.72
2023-04-07T07:16:04.814Z,11.75
2023-04-07T07:17:07.158Z,11.79
2023-04-07T07:18:09.207Z,11.82
2023-04-07T07:19:12.373Z,11.86
2023-04-07T07:20:16.712Z,11.89
2023-04-07T07:24:25.770Z,11.97
2023-04-07T07:25:27.932Z,12.00
2023-04-07T07:26:30.290Z,12.04
2023-04-07T07:27:32.492Z,12.07
2023-04-07T07:28:35.028Z,12.11
2023-04-07T07:29:37.364Z,12.14
2023-04-07T07:30:40.481Z,12.20
2023-04-07T07:31:43.191Z,12.29
2023-04-07T07:32:45.489Z,12.47
2023-04-07T07:33:47.874Z,12.73
2023-04-07T07:34:50.673Z,12.96
2023-04-07T07:35:52.882Z,13.21
2023-04-07T07:36:56.556Z,13.44
2023-04-07T07:37:58.874Z,13.73
2023-04-07T07:39:01.065Z,13.91
2023-04-07T07:40:04.655Z,14.20
2023-04-07T07:41:08.003Z,14.44
2023-04-07T07:42:10.440Z,14.65
2023-04-07T07:43:13.660Z,14.85
2023-04-07T07:44:16.394Z,15.05
2023-04-07T07:46:20.740Z,15.43
2023-04-07T07:48:25.188Z,15.78
2023-04-07T07:49:27.236Z,15.98
2023-04-07T07:52:35.073Z,16.56
2023-04-07T08:03:59.146Z,18.15
2023-04-07T08:05:02.858Z,18.36
2023-04-07T08:07:07.990Z,18.66
2023-04-07T08:09:13.398Z,18.85
2023-04-07T08:10:15.491Z,18.91
2023-04-07T08:12:19.650Z,19.04
2023-04-07T08:13:22.431Z,19.06
2023-04-07T08:14:24.919Z,19.06
2023-04-07T08:15:26.986Z,19.08
2023-04-07T08:16:29.420Z,19.09
2023-04-07T08:17:31.873Z,19.11
2023-04-07T08:19:36.123Z,19.15
2023-04-07T08:20:38.605Z,19.15
2023-04-07T08:21:40.685Z,19.15
2023-04-07T08:22:42.873Z,19.14
2023-04-07T08:23:45.010Z,19.13
2023-04-07T08:24:47.265Z,19.11
2023-04-07T08:25:49.454Z,19.12
2023-04-07T08:26:52.277Z,19.11
2023-04-07T08:27:54.995Z,19.11
2023-04-07T08:28:58.323Z,19.14
2023-04-07T08:30:02.877Z,19.16
2023-04-07T08:31:05.617Z,19.21
2023-04-07T08:32:07.742Z,19.30
2023-04-07T08:33:09.838Z,19.41
2023-04-07T08:34:12.054Z,19.50
2023-04-07T08:35:14.104Z,19.59
2023-04-07T08:36:18.482Z,19.66
2023-04-07T08:37:20.850Z,19.77
2023-04-07T08:38:23.551Z,19.89
2023-04-07T08:39:26.652Z,20.02
2023-04-07T08:40:29.063Z,20.15
2023-04-07T08:41:37.823Z,20.26
2023-04-07T08:42:41.851Z,20.33
2023-04-07T08:43:44.662Z,20.38
2023-04-07T08:44:47.782Z,20.42
2023-04-07T08:45:52.975Z,20.43
2023-04-07T08:47:59.617Z,20.45
2023-04-07T08:51:13.629Z,20.53
2023-04-07T08:56:32.604Z,20.21
2023-04-07T09:13:15.975Z,19.58
2023-04-07T09:15:21.774Z,19.58
2023-04-07T09:18:31.820Z,19.55
2023-04-07T09:21:03.464Z,19.56
2023-04-07T09:22:06.132Z,19.57
2023-04-07T09:23:11.899Z,19.60
2023-04-07T09:25:36.091Z,19.70
2023-04-07T09:26:38.357Z,19.58
2023-04-07T09:27:41.238Z,19.59
2023-04-07T09:28:48.853Z,19.60
2023-04-07T09:29:54.420Z,19.61
2023-04-07T09:30:56.624Z,19.62
2023-04-07T09:31:58.728Z,19.62
2023-04-07T09:33:01.706Z,19.63
2023-04-07T09:35:14.280Z,19.71
2023-04-07T09:36:17.113Z,19.59
2023-04-07T09:37:21.867Z,19.59
2023-04-07T09:38:27.653Z,19.59
2023-04-07T09:39:30.322Z,19.57
2023-04-07T09:40:33.603Z,19.56
2023-04-07T09:41:35.799Z,19.56
2023-04-07T09:42:45.656Z,19.55
2023-04-07T09:43:49.054Z,19.56
2023-04-07T09:44:51.449Z,19.56
2023-04-07T09:45:57.362Z,19.56
2023-04-07T09:47:00.007Z,19.56
2023-04-07T09:48:12.230Z,19.57
2023-04-07T09:49:14.450Z,19.57
2023-04-07T09:50:34.446Z,19.58
2023-04-07T09:51:38.154Z,19.60
2023-04-07T09:52:53.129Z,19.60
2023-04-07T09:53:55.533Z,19.61
2023-04-07T09:54:59.105Z,19.60
2023-04-07T09:56:02.509Z,19.61
2023-04-07T09:57:09.931Z,19.60
2023-04-07T09:58:12.716Z,19.61
2023-04-07T09:59:15.962Z,19.59
2023-04-07T10:00:19.506Z,19.61
2023-04-07T10:01:22.638Z,19.60
2023-04-07T10:02:25.674Z,19.60
2023-04-07T10:03:28.899Z,19.61
2023-04-07T10:04:31.802Z,19.60
2023-04-07T10:05:34.880Z,19.60
2023-04-07T10:06:38.298Z,19.61
2023-04-07T10:07:42.716Z,19.61
2023-04-07T10:08:46.493Z,19.60
2023-04-07T10:09:48.907Z,19.61
2023-04-07T10:10:51.894Z,19.61
2023-04-07T10:11:56.228Z,19.60
2023-04-07T10:12:59.119Z,19.59
2023-04-07T10:14:01.247Z,19.58
2023-04-07T10:15:05.818Z,19.58
2023-04-07T10:16:08.334Z,19.58
2023-04-07T10:17:11.528Z,19.57
2023-04-07T10:18:14.251Z,19.55
2023-04-07T10:19:16.890Z,19.55
2023-04-07T10:20:19.463Z,19.56
2023-04-07T10:21:23.591Z,19.56
2023-04-07T10:22:27.418Z,19.55
2023-04-07T10:23:42.096Z,19.53
2023-04-07T10:24:57.371Z,19.53
2023-04-07T10:26:00.792Z,19.52
2023-04-07T10:27:07.109Z,19.52
2023-04-07T10:28:10.212Z,19.50
2023-04-07T10:29:13.540Z,19.50
2023-04-07T10:30:30.709Z,19.49
2023-04-07T10:31:34.150Z,19.48
2023-04-07T10:32:47.401Z,19.48
2023-04-07T10:33:52.797Z,19.48
2023-04-07T10:34:56.375Z,19.46
2023-04-07T10:36:06.539Z,19.47
2023-04-07T10:37:11.804Z,19.46
2023-04-07T10:38:14.293Z,19.46
2023-04-07T10:39:19.031Z,19.46
2023-04-07T10:40:25.215Z,19.43
2023-04-07T10:42:55.804Z,19.48
2023-04-07T10:44:00.062Z,19.33
2023-04-07T10:45:03.451Z,19.31
2023-04-07T10:46:05.943Z,19.29
2023-04-07T10:47:08.082Z,19.27
2023-04-07T10:48:12.643Z,19.25
2023-04-07T10:49:18.427Z,19.22
2023-04-07T10:50:22.862Z,19.22
2023-04-07T10:51:24.990Z,19.19
2023-04-07T10:52:27.077Z,19.19
2023-04-07T10:53:29.146Z,19.19
2023-04-07T10:54:31.312Z,19.17
2023-04-07T10:55:39.384Z,19.15
2023-04-07T10:57:05.754Z,19.15
2023-04-07T10:58:30.463Z,19.14
2023-04-07T10:59:33.369Z,19.13
2023-04-07T11:00:36.929Z,19.12
2023-04-07T11:01:39.232Z,19.11
2023-04-07T11:02:41.778Z,19.10
2023-04-07T11:03:56.228Z,19.08
2023-04-07T11:04:58.682Z,19.06
2023-04-07T11:06:05.414Z,19.05
2023-04-07T11:07:09.107Z,19.05
2023-04-07T11:08:11.315Z,19.04
2023-04-07T11:09:21.056Z,19.04
2023-04-07T11:10:24.487Z,19.04
2023-04-07T11:11:38.385Z,19.03
2023-04-07T11:12:40.495Z,19.03
2023-04-07T11:13:48.372Z,19.03
2023-04-07T11:14:50.772Z,19.02
2023-04-07T11:15:54.190Z,19.02
2023-04-07T11:16:57.604Z,18.99
2023-04-07T11:19:53.645Z,19.10
2023-04-07T11:20:58.243Z,18.95
2023-04-07T11:22:29.405Z,18.94
2023-04-07T11:23:23.119Z,18.93
2023-04-07T11:24:35.161Z,18.94
2023-04-07T11:25:37.934Z,18.92
2023-04-07T11:26:41.271Z,18.90
2023-04-07T11:27:44.399Z,18.87
2023-04-07T11:28:51.847Z,18.85
2023-04-07T11:29:53.974Z,18.81
2023-04-07T11:30:57.175Z,18.77
2023-04-07T11:32:01.653Z,18.72
2023-04-07T11:33:03.900Z,18.67
2023-04-07T11:34:06.055Z,18.63
2023-04-07T11:35:10.653Z,18.58
2023-04-07T11:36:14.249Z,18.55
2023-04-07T11:37:22.710Z,18.52
2023-04-07T11:38:26.953Z,18.50
2023-04-07T11:39:28.969Z,18.48
2023-04-07T11:41:48.098Z,18.54
2023-04-07T11:42:50.588Z,18.41
2023-04-07T11:44:07.265Z,18.41
2023-04-07T11:45:19.346Z,18.39
2023-04-07T11:46:23.403Z,18.40
2023-04-07T11:47:39.902Z,18.40
2023-04-07T11:48:45.312Z,18.38
2023-04-07T11:49:49.132Z,18.36
2023-04-07T11:50:51.407Z,18.35
2023-04-07T11:52:05.134Z,18.34
2023-04-07T11:53:07.395Z,18.33
2023-04-07T11:54:09.659Z,18.30
2023-04-07T11:55:22.623Z,18.27
2023-04-07T11:56:26.467Z,18.26
2023-04-07T11:57:29.025Z,18.23
2023-04-07T11:58:31.476Z,18.20
2023-04-07T11:59:33.640Z,18.19
2023-04-07T12:00:36.026Z,18.19
2023-04-07T12:01:39.857Z,18.20
2023-04-07T12:02:42.318Z,18.18
2023-04-07T12:04:02.710Z,18.17
2023-04-07T12:05:06.615Z,18.16
2023-04-07T12:06:10.245Z,18.15
2023-04-07T12:07:12.401Z,18.15
2023-04-07T12:08:14.477Z,18.17
2023-04-07T12:09:33.396Z,18.17
2023-04-07T12:10:38.286Z,18.18
2023-04-07T12:12:58.163Z,18.29
2023-04-07T12:14:00.212Z,18.14
2023-04-07T12:15:03.445Z,18.13
2023-04-07T12:16:06.303Z,18.14
2023-04-07T12:18:21.375Z,18.26
2023-04-07T12:19:26.194Z,18.12
2023-04-07T12:20:29.031Z,18.13
2023-04-07T12:21:31.080Z,18.16
2023-04-07T12:22:33.258Z,18.17
2023-04-07T12:23:36.470Z,18.19
2023-04-07T12:25:47.838Z,18.34
2023-04-07T12:26:49.966Z,18.21
2023-04-07T12:27:52.046Z,18.22
2023-04-07T12:28:54.103Z,18.22
2023-04-07T12:29:56.286Z,18.22
2023-04-07T12:30:59.830Z,18.21
2023-04-07T12:32:02.408Z,18.19
2023-04-07T12:33:05.843Z,18.18
2023-04-07T12:34:09.204Z,18.18
2023-04-07T12:35:11.445Z,18.17
2023-04-07T12:36:14.511Z,18.12
2023-04-07T12:37:16.872Z,18.09
2023-04-07T12:38:20.187Z,18.07
2023-04-07T12:39:23.481Z,18.07
2023-04-07T12:40:26.157Z,18.06
2023-04-07T12:41:28.225Z,18.04
2023-04-07T12:42:31.441Z,18.05
2023-04-07T12:43:34.202Z,18.03
2023-04-07T12:44:36.887Z,18.02
2023-04-07T12:45:39.177Z,18.01
2023-04-07T12:46:42.911Z,18.01
2023-04-07T12:47:45.097Z,18.03
2023-04-07T12:48:47.332Z,18.07
2023-04-07T12:49:50.247Z,18.11
2023-04-07T12:50:52.843Z,18.16
2023-04-07T12:51:54.990Z,18.20
2023-04-07T12:52:57.879Z,18.21
2023-04-07T12:54:00.883Z,18.22
2023-04-07T12:55:04.971Z,18.23
2023-04-07T12:56:08.740Z,18.23
2023-04-07T12:57:11.934Z,18.23
2023-04-07T12:58:14.059Z,18.23
2023-04-07T12:59:16.147Z,18.23
2023-04-07T13:00:19.712Z,18.25
2023-04-07T13:01:22.137Z,18.24
2023-04-07T13:02:25.610Z,18.26
2023-04-07T13:03:28.017Z,18.26
2023-04-07T13:04:32.082Z,18.27
2023-04-07T13:05:35.423Z,18.27
2023-04-07T13:06:37.951Z,18.25
2023-04-07T13:07:40.034Z,18.24
2023-04-07T13:08:42.421Z,18.23
2023-04-07T13:09:44.572Z,18.20
2023-04-07T13:10:46.948Z,18.16
2023-04-07T13:11:49.135Z,18.17
2023-04-07T13:12:52.354Z,18.16
2023-04-07T13:13:56.464Z,18.15
2023-04-07T13:15:00.464Z,18.12
2023-04-07T13:16:04.061Z,18.10
2023-04-07T13:17:07.383Z,18.08
2023-04-07T13:18:09.920Z,18.04
2023-04-07T13:19:12.130Z,18.01
2023-04-07T13:20:19.338Z,17.98
2023-04-07T13:21:43.783Z,17.96
2023-04-07T13:22:24.616Z,17.95
2023-04-07T13:23:28.177Z,17.95
2023-04-07T13:24:32.293Z,17.93
2023-04-07T13:25:35.574Z,17.93
2023-04-07T13:26:37.764Z,17.91
2023-04-07T13:27:40.798Z,17.91
2023-04-07T13:28:43.014Z,17.90
2023-04-07T13:29:44.977Z,17.91
2023-04-07T13:30:48.535Z,17.89
2023-04-07T13:31:51.427Z,17.88
2023-04-07T13:32:54.030Z,17.85
2023-04-07T13:33:56.172Z,17.84
2023-04-07T13:34:58.623Z,17.80
2023-04-07T13:36:01.890Z,17.78
2023-04-07T13:37:04.979Z,17.76
2023-04-07T13:38:07.213Z,17.73
2023-04-07T13:39:09.287Z,17.71
2023-04-07T13:40:12.766Z,17.68
2023-04-07T13:41:15.000Z,17.64
2023-04-07T13:42:17.098Z,17.62
2023-04-07T13:43:19.239Z,17.59
2023-04-07T13:44:22.336Z,17.56
2023-04-07T13:45:24.773Z,17.55
2023-04-07T13:46:29.252Z,17.52
2023-04-07T13:47:31.525Z,17.49
2023-04-07T13:48:33.685Z,17.46
2023-04-07T13:49:36.284Z,17.44
2023-04-07T13:50:38.748Z,17.42
2023-04-07T13:51:41.966Z,17.39
2023-04-07T13:52:44.099Z,17.36
2023-04-07T13:53:46.496Z,17.35
2023-04-07T13:54:49.754Z,17.36
2023-04-07T13:55:51.794Z,17.34
2023-04-07T13:56:54.535Z,17.33
2023-04-07T13:57:57.502Z,17.32
2023-04-07T13:58:59.727Z,17.33
2023-04-07T14:00:02.723Z,17.33
2023-04-07T14:01:07.893Z,17.33
2023-04-07T14:02:10.055Z,17.33
2023-04-07T14:03:12.776Z,17.33
2023-04-07T14:04:15.068Z,17.34
2023-04-07T14:05:19.250Z,17.34
2023-04-07T14:06:21.781Z,17.35
2023-04-07T14:07:24.375Z,17.36
2023-04-07T14:08:28.256Z,17.40
2023-04-07T14:09:30.382Z,17.43
2023-04-07T14:10:33.365Z,17.47
2023-04-07T14:11:36.999Z,17.52
2023-04-07T14:12:39.938Z,17.54
2023-04-07T14:13:42.048Z,17.58
2023-04-07T14:14:46.403Z,17.62
2023-04-07T14:15:49.669Z,17.62
2023-04-07T14:16:52.284Z,17.62
2023-04-07T14:17:54.946Z,17.64
2023-04-07T14:18:57.406Z,17.63
2023-04-07T14:19:59.484Z,17.63
2023-04-07T14:21:01.460Z,17.61
2023-04-07T14:22:03.459Z,17.62
2023-04-07T14:23:05.482Z,17.63
2023-04-07T14:24:07.646Z,17.63
2023-04-07T14:25:10.607Z,17.65
2023-04-07T14:26:14.963Z,17.64
2023-04-07T14:27:17.090Z,17.65
2023-04-07T14:28:20.314Z,17.66
2023-04-07T14:29:22.950Z,17.67
2023-04-07T14:30:25.475Z,17.66
2023-04-07T14:31:28.662Z,17.66
2023-04-07T14:32:30.746Z,17.67
2023-04-07T14:33:33.139Z,17.64
2023-04-07T14:34:35.304Z,17.64
2023-04-07T14:35:37.309Z,17.61
2023-04-07T14:36:40.376Z,17.59
2023-04-07T14:37:42.431Z,17.58
2023-04-07T14:38:44.502Z,17.57
2023-04-07T14:39:59.593Z,17.55
2023-04-07T14:40:53.917Z,17.54
2023-04-07T14:41:56.050Z,17.51
2023-04-07T14:44:03.432Z,17.47
2023-04-07T14:45:06.901Z,17.47
2023-04-07T14:46:09.702Z,17.45
2023-04-07T14:47:12.557Z,17.44
2023-04-07T14:48:15.097Z,17.41
2023-04-07T14:49:17.357Z,17.40
2023-04-07T14:50:22.329Z,17.39
2023-04-07T14:51:24.441Z,17.36
2023-04-07T14:52:26.628Z,17.36
2023-04-07T14:53:28.673Z,17.34
2023-04-07T14:54:30.755Z,17.31
2023-04-07T14:55:33.620Z,17.31
2023-04-07T14:56:49.786Z,17.29
2023-04-07T14:57:51.913Z,17.27
2023-04-07T14:58:53.982Z,17.25
2023-04-07T14:59:56.151Z,17.22
2023-04-07T15:00:59.793Z,17.19
2023-04-07T15:02:02.180Z,17.15
2023-04-07T15:03:05.672Z,17.12
2023-04-07T15:04:11.036Z,17.11
2023-04-07T15:05:13.431Z,17.09
2023-04-07T15:06:16.902Z,17.06
2023-04-07T15:07:19.046Z,17.04
2023-04-07T15:08:21.351Z,17.02
2023-04-07T15:09:23.629Z,17.00